sensor_id;sensor_type;location;lat;lon;timestamp;P1;durP1;ratioP1;P2;durP2;ratioP2
43843;SDS011;29497;48.046;7.864;2022-10-31T00:00:09;2.90;;;2.60;;
43843;SDS011;29497;48.046;7.864;2022-10-31T00:02:36;3.90;;;2.60;;
43843;SDS011;29497;48.046;7.864;2022-10-31T00:05:03;4.50;;;2.97;;
43843;SDS011;29497;48.046;7.864;2022-10-31T00:07:30;4.53;;;2.80;;
43843;SDS011;29497;48.046;7.864;2022-10-31T00:09:58;4.93;;;2.90;;
43843;SDS011;29497;48.046;7.864;2022-10-31T00:12:25;3.77;;;2.57;;
43843;SDS011;29497;48.046;7.864;2022-10-31T00:14:52;3.13;;;2.67;;
43843;SDS011;29497;48.046;7.864;2022-10-31T00:17:18;4.77;;;2.73;;
43843;SDS011;29497;48.046;7.864;2022-10-31T00:19:45;3.23;;;2.60;;
43843;SDS011;29497;48.046;7.864;2022-10-31T00:22:11;4.10;;;2.90;;
43843;SDS011;29497;48.046;7.864;2022-10-31T00:24:38;6.77;;;3.00;;
43843;SDS011;29497;48.046;7.864;2022-10-31T00:27:06;4.47;;;3.03;;
43843;SDS011;29497;48.046;7.864;2022-10-31T00:29:32;5.30;;;3.00;;
43843;SDS011;29497;48.046;7.864;2022-10-31T00:31:59;4.43;;;2.93;;
43843;SDS011;29497;48.046;7.864;2022-10-31T00:34:25;4.40;;;2.80;;
43843;SDS011;29497;48.046;7.864;2022-10-31T00:36:51;4.70;;;2.93;;
43843;SDS011;29497;48.046;7.864;2022-10-31T00:39:18;4.23;;;2.90;;
43843;SDS011;29497;48.046;7.864;2022-10-31T00:41:44;5.07;;;2.70;;
43843;SDS011;29497;48.046;7.864;2022-10-31T00:44:12;3.53;;;2.90;;
43843;SDS011;29497;48.046;7.864;2022-10-31T00:46:39;5.17;;;2.90;;
43843;SDS011;29497;48.046;7.864;2022-10-31T00:49:05;6.00;;;2.83;;
43843;SDS011;29497;48.046;7.864;2022-10-31T00:51:32;4.73;;;2.70;;
43843;SDS011;29497;48.046;7.864;2022-10-31T00:53:58;4.97;;;3.00;;
43843;SDS011;29497;48.046;7.864;2022-10-31T00:56:25;4.20;;;3.00;;
43843;SDS011;29497;48.046;7.864;2022-10-31T00:58:51;3.10;;;2.40;;
43843;SDS011;29497;48.046;7.864;2022-10-31T01:01:19;4.37;;;2.60;;
43843;SDS011;29497;48.046;7.864;2022-10-31T01:03:46;4.97;;;2.70;;
43843;SDS011;29497;48.046;7.864;2022-10-31T01:06:13;2.80;;;2.43;;
43843;SDS011;29497;48.046;7.864;2022-10-31T01:08:40;3.83;;;2.40;;
43843;SDS011;29497;48.046;7.864;2022-10-31T01:11:10;3.10;;;2.60;;
43843;SDS011;29497;48.046;7.864;2022-10-31T01:13:38;5.50;;;3.00;;
43843;SDS011;29497;48.046;7.864;2022-10-31T01:16:06;4.60;;;2.87;;
43843;SDS011;29497;48.046;7.864;2022-10-31T01:18:35;3.80;;;2.77;;
43843;SDS011;29497;48.046;7.864;2022-10-31T01:21:03;4.27;;;2.80;;
43843;SDS011;29497;48.046;7.864;2022-10-31T01:23:31;4.03;;;2.70;;
43843;SDS011;29497;48.046;7.864;2022-10-31T01:25:59;3.43;;;2.43;;
43843;SDS011;29497;48.046;7.864;2022-10-31T01:28:32;4.17;;;2.50;;
43843;SDS011;29497;48.046;7.864;2022-10-31T01:31:00;5.23;;;2.80;;
43843;SDS011;29497;48.046;7.864;2022-10-31T01:33:27;3.80;;;2.70;;
43843;SDS011;29497;48.046;7.864;2022-10-31T01:35:55;3.50;;;2.53;;
43843;SDS011;29497;48.046;7.864;2022-10-31T01:38:22;3.47;;;2.80;;
43843;SDS011;29497;48.046;7.864;2022-10-31T01:40:49;3.53;;;2.60;;
43843;SDS011;29497;48.046;7.864;2022-10-31T01:43:15;3.90;;;2.90;;
43843;SDS011;29497;48.046;7.864;2022-10-31T01:45:42;4.00;;;2.57;;
43843;SDS011;29497;48.046;7.864;2022-10-31T01:48:13;3.50;;;2.47;;
43843;SDS011;29497;48.046;7.864;2022-10-31T01:50:41;3.87;;;3.00;;
43843;SDS011;29497;48.046;7.864;2022-10-31T01:53:11;3.77;;;2.43;;
43843;SDS011;29497;48.046;7.864;2022-10-31T01:55:39;3.70;;;2.57;;
43843;SDS011;29497;48.046;7.864;2022-10-31T01:58:09;3.00;;;2.53;;
43843;SDS011;29497;48.046;7.864;2022-10-31T02:00:39;4.43;;;2.70;;
43843;SDS011;29497;48.046;7.864;2022-10-31T02:03:09;5.80;;;3.00;;
43843;SDS011;29497;48.046;7.864;2022-10-31T02:05:36;3.33;;;2.53;;
43843;SDS011;29497;48.046;7.864;2022-10-31T02:08:03;3.77;;;2.97;;
43843;SDS011;29497;48.046;7.864;2022-10-31T02:10:35;2.83;;;2.40;;
43843;SDS011;29497;48.046;7.864;2022-10-31T02:13:03;3.93;;;2.60;;
43843;SDS011;29497;48.046;7.864;2022-10-31T02:15:31;3.70;;;2.23;;
43843;SDS011;29497;48.046;7.864;2022-10-31T02:17:59;4.63;;;2.57;;
43843;SDS011;29497;48.046;7.864;2022-10-31T02:20:27;4.13;;;2.70;;
43843;SDS011;29497;48.046;7.864;2022-10-31T02:26:10;3.57;;;2.57;;
43843;SDS011;29497;48.046;7.864;2022-10-31T02:29:00;3.23;;;2.30;;
43843;SDS011;29497;48.046;7.864;2022-10-31T02:31:39;3.43;;;2.73;;
43843;SDS011;29497;48.046;7.864;2022-10-31T02:34:13;2.83;;;2.53;;
43843;SDS011;29497;48.046;7.864;2022-10-31T02:36:46;3.10;;;2.70;;
43843;SDS011;29497;48.046;7.864;2022-10-31T02:39:18;2.90;;;2.57;;
43843;SDS011;29497;48.046;7.864;2022-10-31T02:41:51;2.90;;;2.50;;
43843;SDS011;29497;48.046;7.864;2022-10-31T02:44:26;3.40;;;2.40;;
43843;SDS011;29497;48.046;7.864;2022-10-31T02:47:00;5.63;;;2.70;;
43843;SDS011;29497;48.046;7.864;2022-10-31T02:49:32;4.73;;;2.87;;
43843;SDS011;29497;48.046;7.864;2022-10-31T02:52:12;3.00;;;2.50;;
43843;SDS011;29497;48.046;7.864;2022-10-31T02:54:39;4.00;;;2.70;;
43843;SDS011;29497;48.046;7.864;2022-10-31T02:57:06;4.30;;;2.60;;
43843;SDS011;29497;48.046;7.864;2022-10-31T02:59:34;2.90;;;2.10;;
43843;SDS011;29497;48.046;7.864;2022-10-31T03:02:16;4.43;;;2.50;;
43843;SDS011;29497;48.046;7.864;2022-10-31T03:04:59;4.10;;;2.50;;
43843;SDS011;29497;48.046;7.864;2022-10-31T03:07:39;3.90;;;2.57;;
43843;SDS011;29497;48.046;7.864;2022-10-31T03:10:14;4.73;;;2.33;;
43843;SDS011;29497;48.046;7.864;2022-10-31T03:12:48;2.70;;;2.27;;
43843;SDS011;29497;48.046;7.864;2022-10-31T03:15:21;3.30;;;2.60;;
43843;SDS011;29497;48.046;7.864;2022-10-31T03:17:54;3.73;;;2.60;;
43843;SDS011;29497;48.046;7.864;2022-10-31T03:20:27;3.57;;;2.90;;
43843;SDS011;29497;48.046;7.864;2022-10-31T03:22:56;4.10;;;2.57;;
43843;SDS011;29497;48.046;7.864;2022-10-31T03:25:24;3.00;;;2.70;;
43843;SDS011;29497;48.046;7.864;2022-10-31T03:27:52;4.93;;;2.50;;
43843;SDS011;29497;48.046;7.864;2022-10-31T03:30:21;5.13;;;2.53;;
43843;SDS011;29497;48.046;7.864;2022-10-31T03:32:48;3.10;;;2.40;;
43843;SDS011;29497;48.046;7.864;2022-10-31T03:35:20;4.60;;;2.87;;
43843;SDS011;29497;48.046;7.864;2022-10-31T03:37:51;3.07;;;2.60;;
43843;SDS011;29497;48.046;7.864;2022-10-31T03:40:20;2.93;;;2.57;;
43843;SDS011;29497;48.046;7.864;2022-10-31T03:42:50;5.77;;;2.90;;
43843;SDS011;29497;48.046;7.864;2022-10-31T03:45:21;2.70;;;2.30;;
43843;SDS011;29497;48.046;7.864;2022-10-31T03:47:50;4.40;;;2.60;;
43843;SDS011;29497;48.046;7.864;2022-10-31T03:50:20;3.30;;;2.43;;
43843;SDS011;29497;48.046;7.864;2022-10-31T03:52:48;3.77;;;2.70;;
43843;SDS011;29497;48.046;7.864;2022-10-31T03:55:18;3.90;;;2.77;;
43843;SDS011;29497;48.046;7.864;2022-10-31T03:57:49;3.97;;;2.47;;
43843;SDS011;29497;48.046;7.864;2022-10-31T04:00:20;4.80;;;2.40;;
43843;SDS011;29497;48.046;7.864;2022-10-31T04:02:49;3.70;;;2.60;;
43843;SDS011;29497;48.046;7.864;2022-10-31T04:05:21;3.77;;;2.70;;
43843;SDS011;29497;48.046;7.864;2022-10-31T04:07:49;3.57;;;2.30;;
43843;SDS011;29497;48.046;7.864;2022-10-31T04:10:19;3.13;;;2.07;;
43843;SDS011;29497;48.046;7.864;2022-10-31T04:12:49;3.70;;;2.60;;
43843;SDS011;29497;48.046;7.864;2022-10-31T04:15:20;3.10;;;2.50;;
43843;SDS011;29497;48.046;7.864;2022-10-31T04:17:49;3.83;;;2.60;;
43843;SDS011;29497;48.046;7.864;2022-10-31T04:20:18;4.37;;;2.20;;
43843;SDS011;29497;48.046;7.864;2022-10-31T04:22:56;4.17;;;2.30;;
43843;SDS011;29497;48.046;7.864;2022-10-31T04:25:22;3.20;;;2.50;;
43843;SDS011;29497;48.046;7.864;2022-10-31T04:27:49;2.37;;;2.10;;
43843;SDS011;29497;48.046;7.864;2022-10-31T04:30:16;5.00;;;2.57;;
43843;SDS011;29497;48.046;7.864;2022-10-31T04:32:42;3.33;;;2.60;;
43843;SDS011;29497;48.046;7.864;2022-10-31T04:35:08;3.87;;;2.30;;
43843;SDS011;29497;48.046;7.864;2022-10-31T04:37:35;3.30;;;2.40;;
43843;SDS011;29497;48.046;7.864;2022-10-31T04:40:03;3.27;;;2.37;;
43843;SDS011;29497;48.046;7.864;2022-10-31T04:42:30;4.17;;;2.50;;
43843;SDS011;29497;48.046;7.864;2022-10-31T04:44:57;3.23;;;2.10;;
43843;SDS011;29497;48.046;7.864;2022-10-31T04:47:24;2.80;;;2.40;;
43843;SDS011;29497;48.046;7.864;2022-10-31T04:49:50;3.47;;;2.43;;
43843;SDS011;29497;48.046;7.864;2022-10-31T04:52:17;3.63;;;2.20;;
43843;SDS011;29497;48.046;7.864;2022-10-31T04:54:43;3.50;;;2.50;;
43843;SDS011;29497;48.046;7.864;2022-10-31T04:57:11;4.70;;;2.50;;
43843;SDS011;29497;48.046;7.864;2022-10-31T04:59:37;2.70;;;2.30;;
43843;SDS011;29497;48.046;7.864;2022-10-31T05:02:04;2.60;;;2.40;;
43843;SDS011;29497;48.046;7.864;2022-10-31T05:04:30;2.70;;;2.20;;
43843;SDS011;29497;48.046;7.864;2022-10-31T05:06:57;2.60;;;2.30;;
43843;SDS011;29497;48.046;7.864;2022-10-31T05:09:23;3.37;;;2.50;;
43843;SDS011;29497;48.046;7.864;2022-10-31T05:11:50;3.90;;;2.30;;
43843;SDS011;29497;48.046;7.864;2022-10-31T05:14:18;3.03;;;2.20;;
43843;SDS011;29497;48.046;7.864;2022-10-31T05:16:44;3.20;;;2.30;;
43843;SDS011;29497;48.046;7.864;2022-10-31T05:19:11;3.60;;;2.60;;
43843;SDS011;29497;48.046;7.864;2022-10-31T05:21:37;3.77;;;2.60;;
43843;SDS011;29497;48.046;7.864;2022-10-31T05:24:04;2.77;;;2.43;;
43843;SDS011;29497;48.046;7.864;2022-10-31T05:26:31;3.00;;;2.37;;
43843;SDS011;29497;48.046;7.864;2022-10-31T05:28:57;2.63;;;2.20;;
43843;SDS011;29497;48.046;7.864;2022-10-31T05:31:25;2.60;;;2.40;;
43843;SDS011;29497;48.046;7.864;2022-10-31T05:33:53;5.53;;;2.10;;
43843;SDS011;29497;48.046;7.864;2022-10-31T05:36:19;2.80;;;2.27;;
43843;SDS011;29497;48.046;7.864;2022-10-31T05:38:46;2.50;;;2.27;;
43843;SDS011;29497;48.046;7.864;2022-10-31T05:41:12;2.93;;;2.40;;
43843;SDS011;29497;48.046;7.864;2022-10-31T05:43:39;3.97;;;2.50;;
43843;SDS011;29497;48.046;7.864;2022-10-31T05:46:05;3.17;;;2.40;;
43843;SDS011;29497;48.046;7.864;2022-10-31T05:48:33;3.60;;;2.27;;
43843;SDS011;29497;48.046;7.864;2022-10-31T05:51:00;4.30;;;2.07;;
43843;SDS011;29497;48.046;7.864;2022-10-31T05:53:26;3.87;;;2.80;;
43843;SDS011;29497;48.046;7.864;2022-10-31T05:55:53;3.17;;;2.40;;
43843;SDS011;29497;48.046;7.864;2022-10-31T05:58:19;3.87;;;2.20;;
43843;SDS011;29497;48.046;7.864;2022-10-31T06:00:46;3.13;;;2.27;;
43843;SDS011;29497;48.046;7.864;2022-10-31T06:03:12;3.63;;;2.50;;
43843;SDS011;29497;48.046;7.864;2022-10-31T06:05:40;2.87;;;2.30;;
43843;SDS011;29497;48.046;7.864;2022-10-31T06:08:06;3.90;;;2.40;;
43843;SDS011;29497;48.046;7.864;2022-10-31T06:10:33;3.47;;;2.50;;
43843;SDS011;29497;48.046;7.864;2022-10-31T06:12:59;3.20;;;2.30;;
43843;SDS011;29497;48.046;7.864;2022-10-31T06:15:26;3.83;;;2.30;;
43843;SDS011;29497;48.046;7.864;2022-10-31T06:17:59;2.73;;;2.23;;
43843;SDS011;29497;48.046;7.864;2022-10-31T06:20:27;4.43;;;2.63;;
43843;SDS011;29497;48.046;7.864;2022-10-31T06:22:55;2.90;;;2.40;;
43843;SDS011;29497;48.046;7.864;2022-10-31T06:25:21;6.10;;;2.30;;
43843;SDS011;29497;48.046;7.864;2022-10-31T06:27:48;2.37;;;2.07;;
43843;SDS011;29497;48.046;7.864;2022-10-31T06:30:14;6.27;;;2.57;;
43843;SDS011;29497;48.046;7.864;2022-10-31T06:32:41;4.10;;;2.63;;
43843;SDS011;29497;48.046;7.864;2022-10-31T06:35:07;5.20;;;2.40;;
43843;SDS011;29497;48.046;7.864;2022-10-31T06:37:34;3.30;;;2.10;;
43843;SDS011;29497;48.046;7.864;2022-10-31T06:40:03;2.80;;;2.20;;
43843;SDS011;29497;48.046;7.864;2022-10-31T06:42:30;3.43;;;2.30;;
43843;SDS011;29497;48.046;7.864;2022-10-31T06:44:56;2.87;;;2.20;;
43843;SDS011;29497;48.046;7.864;2022-10-31T06:47:23;3.43;;;2.40;;
43843;SDS011;29497;48.046;7.864;2022-10-31T06:49:49;2.87;;;2.30;;
43843;SDS011;29497;48.046;7.864;2022-10-31T06:52:16;2.87;;;2.33;;
43843;SDS011;29497;48.046;7.864;2022-10-31T06:54:42;2.90;;;2.23;;
43843;SDS011;29497;48.046;7.864;2022-10-31T06:57:10;2.93;;;2.10;;
43843;SDS011;29497;48.046;7.864;2022-10-31T06:59:36;2.83;;;2.50;;
43843;SDS011;29497;48.046;7.864;2022-10-31T07:02:03;5.63;;;2.30;;
43843;SDS011;29497;48.046;7.864;2022-10-31T07:04:29;2.50;;;2.30;;
43843;SDS011;29497;48.046;7.864;2022-10-31T07:06:56;3.23;;;2.30;;
43843;SDS011;29497;48.046;7.864;2022-10-31T07:09:22;4.93;;;2.70;;
43843;SDS011;29497;48.046;7.864;2022-10-31T07:11:51;2.87;;;2.40;;
43843;SDS011;29497;48.046;7.864;2022-10-31T07:14:19;3.83;;;2.57;;
43843;SDS011;29497;48.046;7.864;2022-10-31T07:16:47;2.93;;;2.40;;
43843;SDS011;29497;48.046;7.864;2022-10-31T07:19:15;5.37;;;2.40;;
43843;SDS011;29497;48.046;7.864;2022-10-31T07:21:41;3.17;;;2.60;;
43843;SDS011;29497;48.046;7.864;2022-10-31T07:24:08;4.60;;;2.43;;
43843;SDS011;29497;48.046;7.864;2022-10-31T07:26:34;4.00;;;2.50;;
43843;SDS011;29497;48.046;7.864;2022-10-31T07:29:01;3.97;;;2.90;;
43843;SDS011;29497;48.046;7.864;2022-10-31T07:31:28;4.03;;;2.67;;
43843;SDS011;29497;48.046;7.864;2022-10-31T07:33:55;3.23;;;2.67;;
43843;SDS011;29497;48.046;7.864;2022-10-31T07:36:21;4.40;;;2.67;;
43843;SDS011;29497;48.046;7.864;2022-10-31T07:38:48;4.13;;;3.13;;
43843;SDS011;29497;48.046;7.864;2022-10-31T07:41:15;3.87;;;2.50;;
43843;SDS011;29497;48.046;7.864;2022-10-31T07:43:42;4.27;;;2.53;;
43843;SDS011;29497;48.046;7.864;2022-10-31T07:46:08;4.73;;;2.67;;
43843;SDS011;29497;48.046;7.864;2022-10-31T07:48:37;3.30;;;2.57;;
43843;SDS011;29497;48.046;7.864;2022-10-31T07:51:04;4.10;;;2.70;;
43843;SDS011;29497;48.046;7.864;2022-10-31T07:53:31;3.77;;;2.67;;
43843;SDS011;29497;48.046;7.864;2022-10-31T07:55:58;4.13;;;2.80;;
43843;SDS011;29497;48.046;7.864;2022-10-31T07:58:25;3.43;;;2.90;;
43843;SDS011;29497;48.046;7.864;2022-10-31T08:00:51;4.17;;;2.70;;
43843;SDS011;29497;48.046;7.864;2022-10-31T08:03:18;5.03;;;2.70;;
43843;SDS011;29497;48.046;7.864;2022-10-31T08:05:46;2.80;;;2.50;;
43843;SDS011;29497;48.046;7.864;2022-10-31T08:08:13;4.17;;;2.60;;
43843;SDS011;29497;48.046;7.864;2022-10-31T08:10:40;4.23;;;2.70;;
43843;SDS011;29497;48.046;7.864;2022-10-31T08:13:08;5.47;;;2.63;;
43843;SDS011;29497;48.046;7.864;2022-10-31T08:15:35;3.67;;;2.30;;
43843;SDS011;29497;48.046;7.864;2022-10-31T08:18:04;5.97;;;2.73;;
43843;SDS011;29497;48.046;7.864;2022-10-31T08:20:32;4.70;;;2.40;;
43843;SDS011;29497;48.046;7.864;2022-10-31T08:23:00;5.53;;;3.23;;
43843;SDS011;29497;48.046;7.864;2022-10-31T08:25:29;5.17;;;2.90;;
43843;SDS011;29497;48.046;7.864;2022-10-31T08:27:56;5.13;;;2.83;;
43843;SDS011;29497;48.046;7.864;2022-10-31T08:30:24;3.23;;;2.70;;
43843;SDS011;29497;48.046;7.864;2022-10-31T08:32:58;8.20;;;4.10;;
43843;SDS011;29497;48.046;7.864;2022-10-31T08:35:26;11.37;;;4.23;;
43843;SDS011;29497;48.046;7.864;2022-10-31T08:37:53;8.20;;;5.23;;
43843;SDS011;29497;48.046;7.864;2022-10-31T08:40:21;12.60;;;4.47;;
43843;SDS011;29497;48.046;7.864;2022-10-31T08:42:55;9.87;;;4.07;;
43843;SDS011;29497;48.046;7.864;2022-10-31T08:45:22;8.30;;;3.73;;
43843;SDS011;29497;48.046;7.864;2022-10-31T08:47:49;6.03;;;3.40;;
43843;SDS011;29497;48.046;7.864;2022-10-31T08:50:15;5.50;;;3.37;;
43843;SDS011;29497;48.046;7.864;2022-10-31T08:52:42;8.33;;;3.70;;
43843;SDS011;29497;48.046;7.864;2022-10-31T08:55:08;6.33;;;3.30;;
43843;SDS011;29497;48.046;7.864;2022-10-31T08:57:36;7.07;;;4.17;;
43843;SDS011;29497;48.046;7.864;2022-10-31T09:00:03;6.10;;;3.27;;
43843;SDS011;29497;48.046;7.864;2022-10-31T09:02:30;9.67;;;3.53;;
43843;SDS011;29497;48.046;7.864;2022-10-31T09:04:57;7.50;;;3.70;;
43843;SDS011;29497;48.046;7.864;2022-10-31T09:07:23;8.60;;;3.63;;
43843;SDS011;29497;48.046;7.864;2022-10-31T09:09:50;8.60;;;3.47;;
43843;SDS011;29497;48.046;7.864;2022-10-31T09:12:16;7.57;;;3.50;;
43843;SDS011;29497;48.046;7.864;2022-10-31T09:14:44;8.40;;;3.43;;
43843;SDS011;29497;48.046;7.864;2022-10-31T09:17:11;10.07;;;3.70;;
43843;SDS011;29497;48.046;7.864;2022-10-31T09:21:43;8.07;;;3.63;;
43843;SDS011;29497;48.046;7.864;2022-10-31T09:24:09;4.90;;;3.40;;
43843;SDS011;29497;48.046;7.864;2022-10-31T09:26:36;6.20;;;3.60;;
43843;SDS011;29497;48.046;7.864;2022-10-31T09:29:02;6.03;;;3.97;;
43843;SDS011;29497;48.046;7.864;2022-10-31T09:31:29;5.63;;;3.90;;
43843;SDS011;29497;48.046;7.864;2022-10-31T09:33:56;8.30;;;3.67;;
43843;SDS011;29497;48.046;7.864;2022-10-31T09:36:23;7.83;;;3.73;;
43843;SDS011;29497;48.046;7.864;2022-10-31T09:38:51;9.83;;;3.60;;
43843;SDS011;29497;48.046;7.864;2022-10-31T09:41:19;5.43;;;3.23;;
43843;SDS011;29497;48.046;7.864;2022-10-31T09:43:56;6.73;;;3.17;;
43843;SDS011;29497;48.046;7.864;2022-10-31T09:46:30;5.47;;;3.70;;
43843;SDS011;29497;48.046;7.864;2022-10-31T09:49:16;5.60;;;3.87;;
43843;SDS011;29497;48.046;7.864;2022-10-31T09:51:57;9.53;;;3.70;;
43843;SDS011;29497;48.046;7.864;2022-10-31T09:54:32;5.23;;;3.33;;
43843;SDS011;29497;48.046;7.864;2022-10-31T09:57:04;7.23;;;3.53;;
43843;SDS011;29497;48.046;7.864;2022-10-31T09:59:36;8.07;;;3.63;;
43843;SDS011;29497;48.046;7.864;2022-10-31T10:02:05;7.57;;;3.30;;
43843;SDS011;29497;48.046;7.864;2022-10-31T10:04:41;6.70;;;3.80;;
43843;SDS011;29497;48.046;7.864;2022-10-31T10:07:17;6.23;;;3.20;;
43843;SDS011;29497;48.046;7.864;2022-10-31T10:09:50;7.30;;;3.63;;
43843;SDS011;29497;48.046;7.864;2022-10-31T10:12:19;6.17;;;3.33;;
43843;SDS011;29497;48.046;7.864;2022-10-31T10:15:16;5.43;;;3.50;;
43843;SDS011;29497;48.046;7.864;2022-10-31T10:17:57;4.47;;;2.80;;
43843;SDS011;29497;48.046;7.864;2022-10-31T10:20:35;6.50;;;3.20;;
43843;SDS011;29497;48.046;7.864;2022-10-31T10:23:16;4.30;;;3.03;;
43843;SDS011;29497;48.046;7.864;2022-10-31T10:25:57;7.10;;;3.20;;
43843;SDS011;29497;48.046;7.864;2022-10-31T10:28:36;5.80;;;3.43;;
43843;SDS011;29497;48.046;7.864;2022-10-31T10:31:07;9.40;;;3.47;;
43843;SDS011;29497;48.046;7.864;2022-10-31T10:33:38;5.13;;;3.40;;
43843;SDS011;29497;48.046;7.864;2022-10-31T10:36:10;12.80;;;3.57;;
43843;SDS011;29497;48.046;7.864;2022-10-31T10:38:48;11.00;;;3.90;;
43843;SDS011;29497;48.046;7.864;2022-10-31T10:41:19;14.03;;;4.40;;
43843;SDS011;29497;48.046;7.864;2022-10-31T10:43:48;10.13;;;3.20;;
43843;SDS011;29497;48.046;7.864;2022-10-31T10:46:18;10.97;;;3.70;;
43843;SDS011;29497;48.046;7.864;2022-10-31T10:49:09;10.20;;;3.77;;
43843;SDS011;29497;48.046;7.864;2022-10-31T10:51:43;8.80;;;3.40;;
43843;SDS011;29497;48.046;7.864;2022-10-31T10:54:15;8.23;;;3.50;;
43843;SDS011;29497;48.046;7.864;2022-10-31T10:57:02;11.80;;;4.13;;
43843;SDS011;29497;48.046;7.864;2022-10-31T10:59:37;10.00;;;3.73;;
43843;SDS011;29497;48.046;7.864;2022-10-31T11:02:08;9.97;;;3.70;;
43843;SDS011;29497;48.046;7.864;2022-10-31T11:04:42;9.13;;;3.53;;
43843;SDS011;29497;48.046;7.864;2022-10-31T11:07:11;6.97;;;3.70;;
43843;SDS011;29497;48.046;7.864;2022-10-31T11:09:38;7.13;;;3.87;;
43843;SDS011;29497;48.046;7.864;2022-10-31T11:12:09;5.60;;;3.30;;
43843;SDS011;29497;48.046;7.864;2022-10-31T11:14:46;9.27;;;3.67;;
43843;SDS011;29497;48.046;7.864;2022-10-31T11:17:17;9.10;;;3.73;;
43843;SDS011;29497;48.046;7.864;2022-10-31T11:20:00;8.57;;;3.90;;
43843;SDS011;29497;48.046;7.864;2022-10-31T11:22:29;8.77;;;4.47;;
43843;SDS011;29497;48.046;7.864;2022-10-31T11:24:56;12.13;;;5.73;;
43843;SDS011;29497;48.046;7.864;2022-10-31T11:27:24;10.50;;;5.70;;
43843;SDS011;29497;48.046;7.864;2022-10-31T11:29:52;10.23;;;5.10;;
43843;SDS011;29497;48.046;7.864;2022-10-31T11:32:29;10.03;;;5.40;;
43843;SDS011;29497;48.046;7.864;2022-10-31T11:34:56;10.73;;;5.47;;
43843;SDS011;29497;48.046;7.864;2022-10-31T11:37:27;10.70;;;5.53;;
43843;SDS011;29497;48.046;7.864;2022-10-31T11:39:56;11.33;;;6.13;;
43843;SDS011;29497;48.046;7.864;2022-10-31T11:42:26;7.43;;;5.67;;
43843;SDS011;29497;48.046;7.864;2022-10-31T11:44:55;10.57;;;5.90;;
43843;SDS011;29497;48.046;7.864;2022-10-31T11:47:24;14.13;;;6.17;;
43843;SDS011;29497;48.046;7.864;2022-10-31T11:49:53;9.13;;;6.10;;
43843;SDS011;29497;48.046;7.864;2022-10-31T11:52:22;8.00;;;5.20;;
43843;SDS011;29497;48.046;7.864;2022-10-31T11:54:51;11.77;;;6.40;;
43843;SDS011;29497;48.046;7.864;2022-10-31T11:57:23;13.50;;;6.43;;
43843;SDS011;29497;48.046;7.864;2022-10-31T11:59:53;10.00;;;6.40;;
43843;SDS011;29497;48.046;7.864;2022-10-31T12:02:21;11.13;;;5.80;;
43843;SDS011;29497;48.046;7.864;2022-10-31T12:04:50;10.00;;;6.60;;
43843;SDS011;29497;48.046;7.864;2022-10-31T12:07:25;16.47;;;8.70;;
43843;SDS011;29497;48.046;7.864;2022-10-31T12:09:52;11.87;;;7.67;;
43843;SDS011;29497;48.046;7.864;2022-10-31T12:12:25;15.57;;;8.47;;
43843;SDS011;29497;48.046;7.864;2022-10-31T12:20:59;12.07;;;6.90;;
43843;SDS011;29497;48.046;7.864;2022-10-31T12:23:38;14.50;;;7.80;;
43843;SDS011;29497;48.046;7.864;2022-10-31T12:26:14;12.60;;;7.13;;
43843;SDS011;29497;48.046;7.864;2022-10-31T12:28:52;13.27;;;7.10;;
43843;SDS011;29497;48.046;7.864;2022-10-31T12:31:32;12.60;;;6.70;;
43843;SDS011;29497;48.046;7.864;2022-10-31T12:34:21;12.80;;;6.83;;
43843;SDS011;29497;48.046;7.864;2022-10-31T12:37:05;14.43;;;6.80;;
43843;SDS011;29497;48.046;7.864;2022-10-31T12:39:40;10.93;;;7.00;;
43843;SDS011;29497;48.046;7.864;2022-10-31T12:42:15;11.37;;;6.23;;
43843;SDS011;29497;48.046;7.864;2022-10-31T12:44:58;11.77;;;6.83;;
43843;SDS011;29497;48.046;7.864;2022-10-31T12:47:49;10.10;;;6.30;;
43843;SDS011;29497;48.046;7.864;2022-10-31T12:50:34;11.60;;;6.80;;
43843;SDS011;29497;48.046;7.864;2022-10-31T12:53:13;12.57;;;6.00;;
43843;SDS011;29497;48.046;7.864;2022-10-31T12:55:59;10.33;;;5.90;;
43843;SDS011;29497;48.046;7.864;2022-10-31T12:58:33;11.00;;;5.97;;
43843;SDS011;29497;48.046;7.864;2022-10-31T13:01:07;12.57;;;5.93;;
43843;SDS011;29497;48.046;7.864;2022-10-31T13:03:41;10.47;;;6.17;;
43843;SDS011;29497;48.046;7.864;2022-10-31T13:06:13;14.50;;;6.60;;
43843;SDS011;29497;48.046;7.864;2022-10-31T13:08:45;10.80;;;6.03;;
43843;SDS011;29497;48.046;7.864;2022-10-31T13:11:16;9.03;;;5.87;;
43843;SDS011;29497;48.046;7.864;2022-10-31T13:13:48;10.73;;;6.07;;
43843;SDS011;29497;48.046;7.864;2022-10-31T13:16:22;12.23;;;6.40;;
43843;SDS011;29497;48.046;7.864;2022-10-31T13:18:54;11.40;;;6.07;;
43843;SDS011;29497;48.046;7.864;2022-10-31T13:21:25;10.73;;;6.57;;
43843;SDS011;29497;48.046;7.864;2022-10-31T13:23:54;19.37;;;6.07;;
43843;SDS011;29497;48.046;7.864;2022-10-31T13:26:28;14.57;;;6.87;;
43843;SDS011;29497;48.046;7.864;2022-10-31T13:29:13;12.70;;;6.40;;
43843;SDS011;29497;48.046;7.864;2022-10-31T13:31:45;13.70;;;6.07;;
43843;SDS011;29497;48.046;7.864;2022-10-31T13:34:18;14.57;;;6.73;;
43843;SDS011;29497;48.046;7.864;2022-10-31T13:36:58;12.53;;;6.40;;
43843;SDS011;29497;48.046;7.864;2022-10-31T13:39:34;13.17;;;6.70;;
43843;SDS011;29497;48.046;7.864;2022-10-31T13:42:13;16.90;;;7.43;;
43843;SDS011;29497;48.046;7.864;2022-10-31T13:44:45;16.30;;;8.10;;
43843;SDS011;29497;48.046;7.864;2022-10-31T13:47:23;21.87;;;8.20;;
43843;SDS011;29497;48.046;7.864;2022-10-31T13:50:02;16.77;;;7.20;;
43843;SDS011;29497;48.046;7.864;2022-10-31T13:52:31;19.00;;;7.47;;
43843;SDS011;29497;48.046;7.864;2022-10-31T13:54:57;20.60;;;8.43;;
43843;SDS011;29497;48.046;7.864;2022-10-31T13:57:27;14.70;;;7.50;;
43843;SDS011;29497;48.046;7.864;2022-10-31T13:59:58;14.27;;;6.30;;
43843;SDS011;29497;48.046;7.864;2022-10-31T14:02:26;11.90;;;6.67;;
43843;SDS011;29497;48.046;7.864;2022-10-31T14:04:58;15.13;;;6.30;;
43843;SDS011;29497;48.046;7.864;2022-10-31T14:07:26;11.53;;;6.43;;
43843;SDS011;29497;48.046;7.864;2022-10-31T14:09:55;17.53;;;6.30;;
43843;SDS011;29497;48.046;7.864;2022-10-31T14:12:25;15.67;;;5.93;;
43843;SDS011;29497;48.046;7.864;2022-10-31T14:14:57;12.73;;;6.73;;
43843;SDS011;29497;48.046;7.864;2022-10-31T14:17:27;13.43;;;6.40;;
43843;SDS011;29497;48.046;7.864;2022-10-31T14:22:58;13.40;;;5.40;;
43843;SDS011;29497;48.046;7.864;2022-10-31T14:25:36;10.60;;;5.40;;
43843;SDS011;29497;48.046;7.864;2022-10-31T14:28:17;11.27;;;5.60;;
43843;SDS011;29497;48.046;7.864;2022-10-31T14:30:51;11.23;;;5.93;;
43843;SDS011;29497;48.046;7.864;2022-10-31T14:33:19;9.37;;;5.30;;
43843;SDS011;29497;48.046;7.864;2022-10-31T14:35:51;14.30;;;6.10;;
43843;SDS011;29497;48.046;7.864;2022-10-31T14:38:31;9.73;;;5.57;;
43843;SDS011;29497;48.046;7.864;2022-10-31T14:41:25;8.43;;;5.00;;
43843;SDS011;29497;48.046;7.864;2022-10-31T14:44:26;9.17;;;5.20;;
43843;SDS011;29497;48.046;7.864;2022-10-31T14:47:07;9.47;;;5.00;;
43843;SDS011;29497;48.046;7.864;2022-10-31T14:49:48;9.23;;;5.27;;
43843;SDS011;29497;48.046;7.864;2022-10-31T14:52:37;10.43;;;5.23;;
43843;SDS011;29497;48.046;7.864;2022-10-31T14:55:05;12.37;;;5.70;;
43843;SDS011;29497;48.046;7.864;2022-10-31T14:57:37;8.50;;;5.27;;
43843;SDS011;29497;48.046;7.864;2022-10-31T15:00:12;11.10;;;5.03;;
43843;SDS011;29497;48.046;7.864;2022-10-31T15:02:45;8.87;;;4.90;;
43843;SDS011;29497;48.046;7.864;2022-10-31T15:05:18;8.30;;;5.30;;
43843;SDS011;29497;48.046;7.864;2022-10-31T15:07:51;7.57;;;4.97;;
43843;SDS011;29497;48.046;7.864;2022-10-31T15:10:20;8.97;;;5.70;;
43843;SDS011;29497;48.046;7.864;2022-10-31T15:12:48;10.50;;;5.87;;
43843;SDS011;29497;48.046;7.864;2022-10-31T15:15:17;8.37;;;5.67;;
43843;SDS011;29497;48.046;7.864;2022-10-31T15:17:47;8.87;;;5.87;;